Terminal Aerodrome Forecast
Issued by NWS Binghamton, NY

Home | Current Version | Previous Version | Text Only | Print | Product List | Glossary On
Versions: 1 2 3 4 5 6 7 8 9 10 11 12 13 14 15 16 17 18 19 20 21
000
FTUS41 KBGM 270535
TAFSYR
TAF
KSYR 270535Z 2706/2806 23008KT P6SM SCT025 BKN040
     FM270900 22005KT P6SM SCT040
     FM271400 24008KT P6SM SCT050
     FM280000 VRB03KT P6SM SCT250=

USA.gov is the U.S. government's official web portal to all federal, state and local government web resources and services.